• Join FlightAware (Why Join?)
  • Login
  • US Flag 
07:08AM EDT


 

Airport Tracker/Info


-or-


 

Live Flight TrackerFlight Track Log ✈ N2876Q ✈ 21-Oct-2013 ✈ H75 - M70

Flight Track Log - Related Links

Times and Time Zones

All times are in EDT time to prevent confusion due to time zone crossing. See the N2876Q flight status page for this flight to view local times or setup timezone preferences in your user account.

Time Position Orientation Groundspeed Altitude Reporting Facility
EDT Latitude Longitude Course Direction KTS MPH feet Rate Location/Type
10:52AM 35.3333 -89.4833 333° Northwest 81 93 2,800  Level KMEM
10:53AM 35.3500 -89.5000 321° Northwest 71 82 3,400 600 Climbing KMEM
10:54AM 35.3667 -89.5167 321° Northwest 71 82 4,100 540 Climbing KMEM
10:55AM 35.3667 -89.5333 270° West 66 76 4,500 240 Climbing KMEM
10:56AM 35.3833 -89.5500 321° Northwest 92 106 4,600  Climbing KMEM
10:57AM 35.4167 -89.5667 338° Northwest 99 114 4,500 -120 Descending KMEM
10:58AM 34.9762 -90.1497 333° Northwest  Level FlightAware Approximate
10:58AM 35.4333 -89.5833 321° Northwest 91 105 4,400  Level KMEM
10:59AM 35.4500 -89.6167 302° West 86 99 4,500  Climbing KMEM
11:00AM 35.4667 -89.6333 321° Northwest 90 104 4,400 -60 Descending KMEM
11:01AM 35.4833 -89.6500 321° Northwest 91 105 4,400  Level KMEM
11:02AM 35.5000 -89.6667 321° Northwest 88 101 4,400  Level KMEM
11:03AM 35.5167 -89.7000 302° West 93 107 4,400  Level KMEM
11:04AM 35.5333 -89.7333 302° West 88 101 4,400  Level KMEM
11:05AM 35.5500 -89.7500 321° Northwest 88 101 4,500  Climbing KMEM
11:06AM 35.5578 -89.7700 296° West 90 104 4,500 -60 Level Memphis Center
11:07AM 35.5722 -89.7953 305° West 90 104 4,400 -60 Descending Memphis Center
11:08AM 35.5858 -89.8208 303° West 90 104 4,400  Level Memphis Center
11:09AM 35.5992 -89.8450 304° West 86 99 4,400  Level Memphis Center
11:10AM 35.6114 -89.8728 298° West 89 102 4,400  Level Memphis Center
11:11AM 35.6261 -89.9033 301° West 89 102 4,400  Level Memphis Center
11:12AM 35.6414 -89.9278 308° West 89 102 4,400  Level Memphis Center
11:14AM 35.6567 -89.9508 309° West 88 101 4,400  Level Memphis Center
11:15AM 35.6731 -89.9742 311° West 88 101 4,400  Level Memphis Center
11:16AM 35.6908 -89.9953 316° Northwest 89 102 4,400  Level Memphis Center
11:17AM 35.7092 -90.0233 309° West 90 104 4,400  Level Memphis Center
11:18AM 35.7225 -90.0494 302° West 91 105 4,400  Level Memphis Center
11:19AM 35.7367 -90.0742 305° West 89 102 4,500  Climbing Memphis Center
11:20AM 35.7522 -90.0997 307° West 91 105 4,500  Level Memphis Center
11:21AM 35.7650 -90.1256 301° West 90 104 4,500  Level Memphis Center
11:22AM 35.7781 -90.1508 302° West 88 101 4,500  Level Memphis Center
11:23AM 35.7922 -90.1772 304° West 91 105 4,500 -60 Level Memphis Center
11:24AM 35.8086 -90.2081 303° West 90 104 4,400  Descending Memphis Center
11:25AM 35.8250 -90.2322 310° West 91 105 4,500  Climbing Memphis Center
11:26AM 35.8411 -90.2581 308° West 93 107 4,400 -60 Descending Memphis Center
11:27AM 35.8578 -90.2822 310° West 94 108 4,400  Level Memphis Center
11:28AM 35.8714 -90.3078 303° West 91 105 4,400  Level Memphis Center
11:29AM 35.8842 -90.3336 301° West 89 102 4,400  Level Memphis Center
11:30AM 35.8992 -90.3656 300° West 89 102 4,400  Level Memphis Center
11:31AM 35.9125 -90.3908 303° West 89 102 4,400  Level Memphis Center
11:32AM 35.9256 -90.4186 300° West 91 105 4,400  Level Memphis Center
11:33AM 35.9381 -90.4447 301° West 90 104 4,400  Level Memphis Center
11:34AM 35.9542 -90.4678 311° West 89 102 4,400  Level Memphis Center
11:35AM 35.9725 -90.4906 315° West 91 105 4,400  Level Memphis Center
11:36AM 35.9850 -90.5167 301° West 89 102 4,500  Climbing Memphis Center
11:38AM 36.0092 -90.5572 306° West 92 106 4,500  Level Memphis Center
11:39AM 36.0222 -90.5819 303° West 90 104 4,500  Level Memphis Center
11:40AM 36.0383 -90.6069 309° West 90 104 4,500  Level Memphis Center
11:41AM 36.0553 -90.6300 312° West 91 105 4,500 -60 Level Memphis Center
11:42AM 36.0744 -90.6594 309° West 91 105 4,400 -60 Descending Memphis Center
11:43AM 36.0931 -90.6817 316° Northwest 92 106 4,400  Level Memphis Center
11:44AM 36.1106 -90.7047 313° West 92 106 4,400  Level Memphis Center
11:45AM 36.1267 -90.7275 311° West 91 105 4,400  Level Memphis Center
11:46AM 36.1414 -90.7522 306° West 90 104 4,400  Level Memphis Center
11:47AM 36.1581 -90.7775 309° West 92 106 4,400  Level Memphis Center